sensor_id;sensor_type;location;lat;lon;timestamp;temperature;humidity
39483;DHT22;25682;48.438;1.482;2022-10-16T17:44:39;23.30;78.80
39483;DHT22;25682;48.438;1.482;2022-10-16T17:47:05;23.30;79.40
39483;DHT22;25682;48.438;1.482;2022-10-16T17:49:30;23.30;79.40
39483;DHT22;25682;48.438;1.482;2022-10-16T17:51:56;23.30;79.50
39483;DHT22;25682;48.438;1.482;2022-10-16T17:54:21;23.30;79.60
39483;DHT22;25682;48.438;1.482;2022-10-16T17:56:47;23.30;79.70
39483;DHT22;25682;48.438;1.482;2022-10-16T17:59:13;23.30;79.70
39483;DHT22;25682;48.438;1.482;2022-10-16T18:01:39;23.30;79.70
39483;DHT22;25682;48.438;1.482;2022-10-16T18:04:09;23.20;79.70
39483;DHT22;25682;48.438;1.482;2022-10-16T18:06:36;23.20;79.70
39483;DHT22;25682;48.438;1.482;2022-10-16T18:09:02;23.20;79.80
39483;DHT22;25682;48.438;1.482;2022-10-16T18:11:29;23.20;79.80
39483;DHT22;25682;48.438;1.482;2022-10-16T18:13:55;23.20;79.70
39483;DHT22;25682;48.438;1.482;2022-10-16T18:16:21;23.30;79.80
39483;DHT22;25682;48.438;1.482;2022-10-16T18:18:47;23.20;79.80
39483;DHT22;25682;48.438;1.482;2022-10-16T18:21:13;23.20;80.50
39483;DHT22;25682;48.438;1.482;2022-10-16T18:23:39;23.20;79.90
39483;DHT22;25682;48.438;1.482;2022-10-16T18:26:05;23.20;79.90
39483;DHT22;25682;48.438;1.482;2022-10-16T18:28:31;23.20;79.90
39483;DHT22;25682;48.438;1.482;2022-10-16T18:30:58;23.20;79.90
39483;DHT22;25682;48.438;1.482;2022-10-16T18:33:24;23.20;80.00
39483;DHT22;25682;48.438;1.482;2022-10-16T18:35:50;23.20;80.00
39483;DHT22;25682;48.438;1.482;2022-10-16T18:38:15;23.20;80.20
39483;DHT22;25682;48.438;1.482;2022-10-16T18:40:41;23.20;80.30
39483;DHT22;25682;48.438;1.482;2022-10-16T18:43:07;23.20;80.20
39483;DHT22;25682;48.438;1.482;2022-10-16T18:45:32;23.20;80.20
39483;DHT22;25682;48.438;1.482;2022-10-16T18:47:57;23.20;80.10
39483;DHT22;25682;48.438;1.482;2022-10-16T18:50:23;23.20;80.00
39483;DHT22;25682;48.438;1.482;2022-10-16T18:52:49;23.20;80.10
39483;DHT22;25682;48.438;1.482;2022-10-16T18:55:15;23.10;80.10
39483;DHT22;25682;48.438;1.482;2022-10-16T18:57:40;23.20;80.20
39483;DHT22;25682;48.438;1.482;2022-10-16T19:00:06;23.10;80.10
39483;DHT22;25682;48.438;1.482;2022-10-16T19:02:31;23.10;80.00
39483;DHT22;25682;48.438;1.482;2022-10-16T19:04:57;23.10;80.00
39483;DHT22;25682;48.438;1.482;2022-10-16T19:07:23;23.10;80.20
39483;DHT22;25682;48.438;1.482;2022-10-16T19:09:49;23.10;81.00
39483;DHT22;25682;48.438;1.482;2022-10-16T19:12:14;23.10;80.60
39483;DHT22;25682;48.438;1.482;2022-10-16T19:14:39;23.10;80.80
39483;DHT22;25682;48.438;1.482;2022-10-16T19:17:05;23.00;81.10
39483;DHT22;25682;48.438;1.482;2022-10-16T19:19:31;23.00;81.40
39483;DHT22;25682;48.438;1.482;2022-10-16T19:21:56;23.00;81.70
39483;DHT22;25682;48.438;1.482;2022-10-16T19:24:36;23.00;81.80
39483;DHT22;25682;48.438;1.482;2022-10-16T19:27:02;23.00;81.70
39483;DHT22;25682;48.438;1.482;2022-10-16T19:29:27;22.90;81.70
39483;DHT22;25682;48.438;1.482;2022-10-16T19:31:55;23.00;81.80
39483;DHT22;25682;48.438;1.482;2022-10-16T19:34:20;23.00;81.80
39483;DHT22;25682;48.438;1.482;2022-10-16T19:36:46;23.00;81.90
39483;DHT22;25682;48.438;1.482;2022-10-16T19:39:14;23.00;82.00
39483;DHT22;25682;48.438;1.482;2022-10-16T19:41:42;22.90;82.10
39483;DHT22;25682;48.438;1.482;2022-10-16T19:44:08;22.90;82.20
39483;DHT22;25682;48.438;1.482;2022-10-16T19:46:35;23.00;82.40
39483;DHT22;25682;48.438;1.482;2022-10-16T19:49:02;22.90;82.30
39483;DHT22;25682;48.438;1.482;2022-10-16T19:51:28;23.00;82.40
39483;DHT22;25682;48.438;1.482;2022-10-16T19:53:58;22.90;82.30
39483;DHT22;25682;48.438;1.482;2022-10-16T19:56:24;23.00;82.40
39483;DHT22;25682;48.438;1.482;2022-10-16T19:58:50;23.00;82.40
39483;DHT22;25682;48.438;1.482;2022-10-16T20:01:17;23.00;82.40
39483;DHT22;25682;48.438;1.482;2022-10-16T20:03:43;23.00;82.40
39483;DHT22;25682;48.438;1.482;2022-10-16T20:06:08;23.00;82.40
39483;DHT22;25682;48.438;1.482;2022-10-16T20:08:35;23.00;82.40
39483;DHT22;25682;48.438;1.482;2022-10-16T20:11:00;23.00;82.30
39483;DHT22;25682;48.438;1.482;2022-10-16T20:13:26;23.00;82.20
39483;DHT22;25682;48.438;1.482;2022-10-16T20:15:52;23.00;82.10
39483;DHT22;25682;48.438;1.482;2022-10-16T20:18:17;23.00;82.30
39483;DHT22;25682;48.438;1.482;2022-10-16T21:02:21;22.90;80.60
39483;DHT22;25682;48.438;1.482;2022-10-16T21:04:47;22.90;80.70
39483;DHT22;25682;48.438;1.482;2022-10-16T21:07:14;22.90;80.70
39483;DHT22;25682;48.438;1.482;2022-10-16T21:09:40;22.90;80.60
39483;DHT22;25682;48.438;1.482;2022-10-16T21:12:05;22.80;80.50
39483;DHT22;25682;48.438;1.482;2022-10-16T21:14:31;22.90;80.50
39483;DHT22;25682;48.438;1.482;2022-10-16T21:16:56;22.90;80.40
39483;DHT22;25682;48.438;1.482;2022-10-16T21:19:22;22.80;80.40
39483;DHT22;25682;48.438;1.482;2022-10-16T21:21:47;22.80;80.30
39483;DHT22;25682;48.438;1.482;2022-10-16T21:24:13;22.80;80.30
39483;DHT22;25682;48.438;1.482;2022-10-16T21:26:38;22.80;80.20
39483;DHT22;25682;48.438;1.482;2022-10-16T21:29:04;22.80;80.20
39483;DHT22;25682;48.438;1.482;2022-10-16T21:31:30;22.80;80.20
39483;DHT22;25682;48.438;1.482;2022-10-16T21:33:56;22.80;80.20
39483;DHT22;25682;48.438;1.482;2022-10-16T21:36:26;22.80;80.20
39483;DHT22;25682;48.438;1.482;2022-10-16T21:38:51;22.80;80.10
39483;DHT22;25682;48.438;1.482;2022-10-16T21:41:21;22.80;80.10
39483;DHT22;25682;48.438;1.482;2022-10-16T21:43:47;22.80;80.10
39483;DHT22;25682;48.438;1.482;2022-10-16T21:46:13;22.80;80.00
39483;DHT22;25682;48.438;1.482;2022-10-16T21:48:39;22.80;80.00
39483;DHT22;25682;48.438;1.482;2022-10-16T21:51:06;22.80;80.00
39483;DHT22;25682;48.438;1.482;2022-10-16T21:53:32;22.80;80.00
39483;DHT22;25682;48.438;1.482;2022-10-16T21:55:57;22.80;80.00
39483;DHT22;25682;48.438;1.482;2022-10-16T21:58:23;22.80;80.00
39483;DHT22;25682;48.438;1.482;2022-10-16T22:00:48;22.80;80.00
39483;DHT22;25682;48.438;1.482;2022-10-16T22:03:14;22.80;79.90
39483;DHT22;25682;48.438;1.482;2022-10-16T22:05:40;22.80;79.90
39483;DHT22;25682;48.438;1.482;2022-10-16T22:08:05;22.80;79.90
39483;DHT22;25682;48.438;1.482;2022-10-16T22:10:31;22.80;79.90
39483;DHT22;25682;48.438;1.482;2022-10-16T22:12:56;22.80;79.90
